sensor_id;sensor_type;location;lat;lon;timestamp;pressure;altitude;pressure_sealevel;temperature;humidity
5484;BME280;2764;48.794;8.326;2022-07-23T00:00:25;99808.38;;;23.66;78.62
5484;BME280;2764;48.794;8.326;2022-07-23T00:01:27;99810.91;;;23.67;78.13
5484;BME280;2764;48.794;8.326;2022-07-23T00:02:30;99817.09;;;23.68;78.14
5484;BME280;2764;48.794;8.326;2022-07-23T00:03:31;99810.91;;;23.67;78.03
5484;BME280;2764;48.794;8.326;2022-07-23T00:04:33;99811.19;;;23.64;78.24
5484;BME280;2764;48.794;8.326;2022-07-23T00:05:35;99810.50;;;23.62;79.13
5484;BME280;2764;48.794;8.326;2022-07-23T00:06:38;99802.44;;;23.45;79.11
5484;BME280;2764;48.794;8.326;2022-07-23T00:07:40;99808.72;;;23.53;78.86
5484;BME280;2764;48.794;8.326;2022-07-23T00:08:41;99820.50;;;23.60;78.20
5484;BME280;2764;48.794;8.326;2022-07-23T00:09:43;99816.97;;;23.60;78.49
5484;BME280;2764;48.794;8.326;2022-07-23T00:10:45;99809.72;;;23.52;78.26
5484;BME280;2764;48.794;8.326;2022-07-23T00:11:46;99818.81;;;23.59;78.50
5484;BME280;2764;48.794;8.326;2022-07-23T00:12:48;99817.56;;;23.54;78.47
5484;BME280;2764;48.794;8.326;2022-07-23T00:13:52;99815.75;;;23.54;79.20
5484;BME280;2764;48.794;8.326;2022-07-23T00:14:56;99816.03;;;23.51;78.54
5484;BME280;2764;48.794;8.326;2022-07-23T00:15:58;99815.34;;;23.49;78.15
5484;BME280;2764;48.794;8.326;2022-07-23T00:16:59;99798.91;;;23.44;78.06
5484;BME280;2764;48.794;8.326;2022-07-23T00:18:01;99808.47;;;23.47;78.85
5484;BME280;2764;48.794;8.326;2022-07-23T00:19:03;99804.94;;;23.46;78.80
5484;BME280;2764;48.794;8.326;2022-07-23T00:20:06;99799.06;;;23.43;78.49
5484;BME280;2764;48.794;8.326;2022-07-23T00:21:07;99813.41;;;23.42;79.16
5484;BME280;2764;48.794;8.326;2022-07-23T00:22:09;99808.38;;;23.39;78.25
5484;BME280;2764;48.794;8.326;2022-07-23T00:23:11;99760.97;;;23.14;79.21
5484;BME280;2764;48.794;8.326;2022-07-23T00:24:13;99808.06;;;23.32;80.00
5484;BME280;2764;48.794;8.326;2022-07-23T00:25:14;99774.72;;;23.09;80.22
5484;BME280;2764;48.794;8.326;2022-07-23T00:26:32;99789.16;;;23.16;80.50
5484;BME280;2764;48.794;8.326;2022-07-23T00:27:34;99812.31;;;23.25;81.10
5484;BME280;2764;48.794;8.326;2022-07-23T00:28:35;99815.44;;;23.21;81.10
5484;BME280;2764;48.794;8.326;2022-07-23T00:29:37;99818.38;;;23.18;80.94
5484;BME280;2764;48.794;8.326;2022-07-23T00:30:39;99829.19;;;23.16;81.69
5484;BME280;2764;48.794;8.326;2022-07-23T00:31:41;99825.81;;;23.14;81.21
5484;BME280;2764;48.794;8.326;2022-07-23T00:32:50;99835.78;;;23.12;81.18
5484;BME280;2764;48.794;8.326;2022-07-23T00:33:57;99832.28;;;23.12;81.15
5484;BME280;2764;48.794;8.326;2022-07-23T00:34:59;99832.28;;;23.12;83.14
5484;BME280;2764;48.794;8.326;2022-07-23T00:36:00;99832.59;;;23.09;82.17
5484;BME280;2764;48.794;8.326;2022-07-23T00:37:02;99827.69;;;23.04;82.23
5484;BME280;2764;48.794;8.326;2022-07-23T00:38:04;99825.00;;;23.04;81.88
5484;BME280;2764;48.794;8.326;2022-07-23T00:39:06;99823.47;;;23.01;81.91
5484;BME280;2764;48.794;8.326;2022-07-23T00:40:08;99821.78;;;23.00;82.14
5484;BME280;2764;48.794;8.326;2022-07-23T00:41:10;99824.59;;;22.99;82.05
5484;BME280;2764;48.794;8.326;2022-07-23T00:42:12;99823.31;;;23.03;81.31
5484;BME280;2764;48.794;8.326;2022-07-23T00:43:13;99821.66;;;23.02;80.90
5484;BME280;2764;48.794;8.326;2022-07-23T00:44:24;99819.69;;;23.04;80.49
5484;BME280;2764;48.794;8.326;2022-07-23T00:45:26;99813.34;;;23.05;81.10
5484;BME280;2764;48.794;8.326;2022-07-23T00:46:28;99811.53;;;23.05;81.56
5484;BME280;2764;48.794;8.326;2022-07-23T00:47:30;99799.72;;;23.08;79.18
5484;BME280;2764;48.794;8.326;2022-07-23T00:48:32;99815.72;;;23.08;78.79
5484;BME280;2764;48.794;8.326;2022-07-23T00:49:34;99796.91;;;23.10;75.58
5484;BME280;2764;48.794;8.326;2022-07-23T00:50:35;99796.88;;;23.19;77.11
5484;BME280;2764;48.794;8.326;2022-07-23T00:51:37;99792.22;;;23.21;76.79
5484;BME280;2764;48.794;8.326;2022-07-23T00:52:39;99800.94;;;23.23;76.35
5484;BME280;2764;48.794;8.326;2022-07-23T00:53:41;99791.53;;;23.19;75.92
5484;BME280;2764;48.794;8.326;2022-07-23T00:54:43;99815.13;;;23.24;77.69
5484;BME280;2764;48.794;8.326;2022-07-23T00:55:45;99795.06;;;23.20;78.12
5484;BME280;2764;48.794;8.326;2022-07-23T00:56:47;99788.19;;;23.17;77.95
5484;BME280;2764;48.794;8.326;2022-07-23T00:57:50;99781.13;;;23.16;78.48
5484;BME280;2764;48.794;8.326;2022-07-23T00:58:52;99771.34;;;23.07;77.64
5484;BME280;2764;48.794;8.326;2022-07-23T00:59:53;99782.44;;;23.12;78.40
5484;BME280;2764;48.794;8.326;2022-07-23T01:00:55;99787.06;;;23.10;78.27
5484;BME280;2764;48.794;8.326;2022-07-23T01:01:57;99785.69;;;23.06;78.88
5484;BME280;2764;48.794;8.326;2022-07-23T01:02:59;99781.19;;;23.07;78.02
5484;BME280;2764;48.794;8.326;2022-07-23T01:04:01;99782.31;;;23.04;77.04
5484;BME280;2764;48.794;8.326;2022-07-23T01:05:03;99755.44;;;22.78;77.95
5484;BME280;2764;48.794;8.326;2022-07-23T01:06:05;99761.28;;;22.91;78.96
5484;BME280;2764;48.794;8.326;2022-07-23T01:07:07;99779.53;;;22.96;78.23
5484;BME280;2764;48.794;8.326;2022-07-23T01:08:09;99772.38;;;22.96;77.88
5484;BME280;2764;48.794;8.326;2022-07-23T01:09:11;99768.84;;;22.96;77.19
5484;BME280;2764;48.794;8.326;2022-07-23T01:10:12;99778.56;;;22.97;77.35
5484;BME280;2764;48.794;8.326;2022-07-23T01:11:34;99777.84;;;22.95;77.40
5484;BME280;2764;48.794;8.326;2022-07-23T01:12:36;99781.66;;;22.92;78.32
5484;BME280;2764;48.794;8.326;2022-07-23T01:13:42;99784.06;;;22.86;79.58
5484;BME280;2764;48.794;8.326;2022-07-23T01:14:43;99787.97;;;22.82;79.45
5484;BME280;2764;48.794;8.326;2022-07-23T01:15:45;99795.44;;;22.78;78.99
5484;BME280;2764;48.794;8.326;2022-07-23T01:16:48;99793.88;;;22.76;78.66
5484;BME280;2764;48.794;8.326;2022-07-23T01:17:51;99792.19;;;22.75;79.23
5484;BME280;2764;48.794;8.326;2022-07-23T01:18:52;99794.16;;;22.73;78.60
5484;BME280;2764;48.794;8.326;2022-07-23T01:19:54;99800.50;;;22.72;79.03
5484;BME280;2764;48.794;8.326;2022-07-23T01:20:56;99806.81;;;22.71;79.50
5484;BME280;2764;48.794;8.326;2022-07-23T01:22:01;99801.47;;;22.71;79.36
5484;BME280;2764;48.794;8.326;2022-07-23T01:23:03;99791.06;;;22.68;79.32
5484;BME280;2764;48.794;8.326;2022-07-23T01:24:05;99793.63;;;22.69;80.20
5484;BME280;2764;48.794;8.326;2022-07-23T01:25:07;99795.59;;;22.67;80.44
5484;BME280;2764;48.794;8.326;2022-07-23T01:26:09;99789.69;;;22.64;80.08
5484;BME280;2764;48.794;8.326;2022-07-23T01:27:12;99798.94;;;22.60;79.80
5484;BME280;2764;48.794;8.326;2022-07-23T01:28:14;99793.75;;;22.58;80.80
5484;BME280;2764;48.794;8.326;2022-07-23T01:29:16;99793.31;;;22.53;81.26
5484;BME280;2764;48.794;8.326;2022-07-23T01:30:18;99787.72;;;22.47;81.27
5484;BME280;2764;48.794;8.326;2022-07-23T01:31:20;99791.63;;;22.43;81.85
5484;BME280;2764;48.794;8.326;2022-07-23T01:32:22;99795.81;;;22.35;82.89
5484;BME280;2764;48.794;8.326;2022-07-23T01:33:23;99802.56;;;22.30;84.11
5484;BME280;2764;48.794;8.326;2022-07-23T01:34:25;99794.31;;;22.23;83.17
5484;BME280;2764;48.794;8.326;2022-07-23T01:35:27;99798.78;;;22.23;83.74
5484;BME280;2764;48.794;8.326;2022-07-23T01:36:28;99795.53;;;22.19;84.32
5484;BME280;2764;48.794;8.326;2022-07-23T01:37:30;99793.44;;;22.13;85.26
5484;BME280;2764;48.794;8.326;2022-07-23T01:38:32;99794.69;;;22.09;85.22
5484;BME280;2764;48.794;8.326;2022-07-23T01:39:33;99795.13;;;22.05;86.16
5484;BME280;2764;48.794;8.326;2022-07-23T01:40:35;99789.50;;;21.98;86.22
5484;BME280;2764;48.794;8.326;2022-07-23T01:41:37;99796.38;;;21.91;85.28
5484;BME280;2764;48.794;8.326;2022-07-23T01:42:38;99796.47;;;21.90;85.14
5484;BME280;2764;48.794;8.326;2022-07-23T01:43:40;99810.34;;;21.84;85.23
5484;BME280;2764;48.794;8.326;2022-07-23T01:44:42;99794.50;;;21.82;86.60
5484;BME280;2764;48.794;8.326;2022-07-23T01:45:44;99795.72;;;21.78;86.31
5484;BME280;2764;48.794;8.326;2022-07-23T01:46:45;99797.13;;;21.73;85.97
5484;BME280;2764;48.794;8.326;2022-07-23T01:47:48;99791.50;;;21.66;85.58
5484;BME280;2764;48.794;8.326;2022-07-23T01:48:49;99801.31;;;21.65;86.73
5484;BME280;2764;48.794;8.326;2022-07-23T01:49:51;99803.53;;;21.60;87.84
5484;BME280;2764;48.794;8.326;2022-07-23T01:50:53;99809.94;;;21.58;87.41
5484;BME280;2764;48.794;8.326;2022-07-23T01:51:54;99811.91;;;21.56;86.87
5484;BME280;2764;48.794;8.326;2022-07-23T01:53:02;99806.03;;;21.52;86.05
5484;BME280;2764;48.794;8.326;2022-07-23T01:54:03;99816.78;;;21.51;86.30
5484;BME280;2764;48.794;8.326;2022-07-23T01:55:06;99808.94;;;21.49;88.04
5484;BME280;2764;48.794;8.326;2022-07-23T01:56:08;99805.00;;;21.44;87.32
5484;BME280;2764;48.794;8.326;2022-07-23T01:57:09;99822.81;;;21.43;87.43
5484;BME280;2764;48.794;8.326;2022-07-23T01:58:11;99812.41;;;21.40;88.23
5484;BME280;2764;48.794;8.326;2022-07-23T01:59:13;99816.88;;;21.40;89.81
5484;BME280;2764;48.794;8.326;2022-07-23T02:00:17;99815.47;;;21.36;88.78
5484;BME280;2764;48.794;8.326;2022-07-23T02:01:19;99815.97;;;21.30;88.47
5484;BME280;2764;48.794;8.326;2022-07-23T02:02:20;99806.84;;;21.23;88.94
5484;BME280;2764;48.794;8.326;2022-07-23T02:03:23;99809.50;;;21.23;89.43
5484;BME280;2764;48.794;8.326;2022-07-23T02:04:25;99804.47;;;21.20;88.67
5484;BME280;2764;48.794;8.326;2022-07-23T02:05:27;99808.94;;;21.19;89.27
5484;BME280;2764;48.794;8.326;2022-07-23T02:06:33;99805.25;;;21.11;89.07
5484;BME280;2764;48.794;8.326;2022-07-23T02:07:34;99811.16;;;21.14;88.68
5484;BME280;2764;48.794;8.326;2022-07-23T02:08:36;99810.59;;;21.11;88.78
5484;BME280;2764;48.794;8.326;2022-07-23T02:09:38;99794.69;;;20.99;89.21
5484;BME280;2764;48.794;8.326;2022-07-23T02:10:39;99803.72;;;21.08;88.79
5484;BME280;2764;48.794;8.326;2022-07-23T02:11:41;99811.69;;;21.08;90.25
5484;BME280;2764;48.794;8.326;2022-07-23T02:12:43;99823.66;;;21.02;90.55
5484;BME280;2764;48.794;8.326;2022-07-23T02:13:44;99808.78;;;21.00;89.69
5484;BME280;2764;48.794;8.326;2022-07-23T02:14:46;99816.19;;;20.96;89.80
5484;BME280;2764;48.794;8.326;2022-07-23T02:15:48;99811.84;;;20.95;90.28
5484;BME280;2764;48.794;8.326;2022-07-23T02:16:49;99820.81;;;20.94;90.15
5484;BME280;2764;48.794;8.326;2022-07-23T02:17:51;99825.13;;;20.95;90.50
5484;BME280;2764;48.794;8.326;2022-07-23T02:18:53;99815.03;;;20.89;90.09
5484;BME280;2764;48.794;8.326;2022-07-23T02:19:54;99821.06;;;20.91;90.44
5484;BME280;2764;48.794;8.326;2022-07-23T02:20:56;99822.03;;;20.90;90.35
5484;BME280;2764;48.794;8.326;2022-07-23T02:21:57;99818.53;;;20.90;90.49
5484;BME280;2764;48.794;8.326;2022-07-23T02:22:59;99822.03;;;20.90;91.05
5484;BME280;2764;48.794;8.326;2022-07-23T02:24:01;99827.34;;;20.90;91.00
5484;BME280;2764;48.794;8.326;2022-07-23T02:25:04;99826.53;;;20.90;90.64
5484;BME280;2764;48.794;8.326;2022-07-23T02:26:06;99824.81;;;20.89;90.94
5484;BME280;2764;48.794;8.326;2022-07-23T02:27:07;99831.69;;;20.91;90.60
5484;BME280;2764;48.794;8.326;2022-07-23T02:28:09;99838.72;;;20.92;90.74
5484;BME280;2764;48.794;8.326;2022-07-23T02:29:11;99837.97;;;20.90;90.11
5484;BME280;2764;48.794;8.326;2022-07-23T02:30:12;99829.56;;;20.85;90.41
5484;BME280;2764;48.794;8.326;2022-07-23T02:31:14;99837.16;;;20.90;90.53
5484;BME280;2764;48.794;8.326;2022-07-23T02:32:16;99837.00;;;20.91;91.00
5484;BME280;2764;48.794;8.326;2022-07-23T02:33:18;99848.50;;;20.92;91.13
5484;BME280;2764;48.794;8.326;2022-07-23T02:34:19;99841.63;;;20.89;91.21
5484;BME280;2764;48.794;8.326;2022-07-23T02:35:21;99844.03;;;20.92;91.14
5484;BME280;2764;48.794;8.326;2022-07-23T02:36:23;99842.34;;;20.91;91.76
5484;BME280;2764;48.794;8.326;2022-07-23T02:37:25;99845.00;;;20.91;91.55
5484;BME280;2764;48.794;8.326;2022-07-23T02:38:27;99840.63;;;20.90;92.26
5484;BME280;2764;48.794;8.326;2022-07-23T02:39:28;99846.56;;;20.94;91.92
5484;BME280;2764;48.794;8.326;2022-07-23T02:40:30;99843.75;;;20.95;91.75
5484;BME280;2764;48.794;8.326;2022-07-23T02:41:32;99845.31;;;20.98;91.15
5484;BME280;2764;48.794;8.326;2022-07-23T02:42:33;99850.03;;;21.06;89.86
5484;BME280;2764;48.794;8.326;2022-07-23T02:43:35;99835.88;;;21.05;89.61
5484;BME280;2764;48.794;8.326;2022-07-23T02:44:37;99846.13;;;21.10;89.71
5484;BME280;2764;48.794;8.326;2022-07-23T02:45:38;99847.94;;;21.09;90.08
5484;BME280;2764;48.794;8.326;2022-07-23T02:46:40;99843.34;;;21.11;90.31
5484;BME280;2764;48.794;8.326;2022-07-23T02:47:42;99848.13;;;21.17;89.63
5484;BME280;2764;48.794;8.326;2022-07-23T02:48:43;99833.53;;;21.12;88.66
5484;BME280;2764;48.794;8.326;2022-07-23T02:49:45;99841.44;;;21.23;87.38
5484;BME280;2764;48.794;8.326;2022-07-23T02:50:47;99847.09;;;21.29;85.96
5484;BME280;2764;48.794;8.326;2022-07-23T02:51:48;99844.34;;;21.40;84.58
5484;BME280;2764;48.794;8.326;2022-07-23T02:52:50;99850.22;;;21.44;84.98
5484;BME280;2764;48.794;8.326;2022-07-23T02:53:52;99844.56;;;21.58;81.17
5484;BME280;2764;48.794;8.326;2022-07-23T02:54:53;99852.72;;;21.66;81.18
5484;BME280;2764;48.794;8.326;2022-07-23T02:55:55;99849.66;;;21.71;81.13
5484;BME280;2764;48.794;8.326;2022-07-23T02:56:57;99844.19;;;21.72;80.85
5484;BME280;2764;48.794;8.326;2022-07-23T02:57:58;99842.13;;;21.76;81.08
5484;BME280;2764;48.794;8.326;2022-07-23T02:59:00;99854.28;;;21.78;81.51
5484;BME280;2764;48.794;8.326;2022-07-23T03:00:04;99851.78;;;21.77;81.87
5484;BME280;2764;48.794;8.326;2022-07-23T03:01:07;99853.59;;;21.76;81.75
5484;BME280;2764;48.794;8.326;2022-07-23T03:02:08;99846.59;;;21.75;81.57
5484;BME280;2764;48.794;8.326;2022-07-23T03:03:10;99852.88;;;21.74;81.43
5484;BME280;2764;48.794;8.326;2022-07-23T03:04:12;99850.22;;;21.74;81.77
5484;BME280;2764;48.794;8.326;2022-07-23T03:05:13;99834.09;;;21.36;81.17
5484;BME280;2764;48.794;8.326;2022-07-23T03:06:15;99856.41;;;21.75;81.66
5484;BME280;2764;48.794;8.326;2022-07-23T03:07:17;99857.25;;;21.75;81.63
5484;BME280;2764;48.794;8.326;2022-07-23T03:08:19;99849.66;;;21.71;82.40
5484;BME280;2764;48.794;8.326;2022-07-23T03:09:21;99855.03;;;21.80;82.82
5484;BME280;2764;48.794;8.326;2022-07-23T03:10:22;99860.22;;;21.82;83.94
5484;BME280;2764;48.794;8.326;2022-07-23T03:11:24;99853.59;;;21.76;83.30
5484;BME280;2764;48.794;8.326;2022-07-23T03:12:26;99858.41;;;21.82;82.71
5484;BME280;2764;48.794;8.326;2022-07-23T03:13:27;99861.16;;;21.81;82.79
5484;BME280;2764;48.794;8.326;2022-07-23T03:14:32;99863.28;;;21.77;82.51
5484;BME280;2764;48.794;8.326;2022-07-23T03:15:33;99860.75;;;21.76;83.10
5484;BME280;2764;48.794;8.326;2022-07-23T03:16:35;99860.16;;;21.72;82.87
5484;BME280;2764;48.794;8.326;2022-07-23T03:17:37;99859.22;;;21.73;83.96
5484;BME280;2764;48.794;8.326;2022-07-23T03:18:42;99859.59;;;21.68;83.93
5484;BME280;2764;48.794;8.326;2022-07-23T03:19:44;99860.31;;;21.71;84.42
5484;BME280;2764;48.794;8.326;2022-07-23T03:20:45;99864.53;;;21.73;83.88
5484;BME280;2764;48.794;8.326;2022-07-23T03:21:47;99861.88;;;21.73;84.21
5484;BME280;2764;48.794;8.326;2022-07-23T03:22:49;99861.97;;;21.72;83.55
5484;BME280;2764;48.794;8.326;2022-07-23T03:23:50;99864.38;;;21.75;82.72
5484;BME280;2764;48.794;8.326;2022-07-23T03:24:52;99862.56;;;21.75;83.44
5484;BME280;2764;48.794;8.326;2022-07-23T03:25:56;99865.22;;;21.75;83.53
5484;BME280;2764;48.794;8.326;2022-07-23T03:26:58;99860.63;;;21.77;83.25
5484;BME280;2764;48.794;8.326;2022-07-23T03:28:00;99869.03;;;21.82;83.25
5484;BME280;2764;48.794;8.326;2022-07-23T03:29:02;99865.16;;;21.86;82.57
5484;BME280;2764;48.794;8.326;2022-07-23T03:30:06;99863.06;;;21.90;83.08
5484;BME280;2764;48.794;8.326;2022-07-23T03:31:08;99865.59;;;21.91;84.30
5484;BME280;2764;48.794;8.326;2022-07-23T03:32:10;99865.72;;;21.90;85.63
5484;BME280;2764;48.794;8.326;2022-07-23T03:33:15;99866.00;;;21.87;85.38
5484;BME280;2764;48.794;8.326;2022-07-23T03:34:17;99867.81;;;21.86;85.59
5484;BME280;2764;48.794;8.326;2022-07-23T03:35:21;99870.63;;;21.85;85.02
5484;BME280;2764;48.794;8.326;2022-07-23T03:36:22;99864.53;;;21.83;84.32
5484;BME280;2764;48.794;8.326;2022-07-23T03:37:25;99865.53;;;21.82;85.16
5484;BME280;2764;48.794;8.326;2022-07-23T03:38:27;99867.75;;;21.77;85.29
5484;BME280;2764;48.794;8.326;2022-07-23T03:39:29;99857.75;;;21.69;85.67
5484;BME280;2764;48.794;8.326;2022-07-23T03:40:30;99860.56;;;21.67;86.18
5484;BME280;2764;48.794;8.326;2022-07-23T03:41:32;99864.19;;;21.66;85.78
5484;BME280;2764;48.794;8.326;2022-07-23T03:42:34;99872.59;;;21.62;85.31
5484;BME280;2764;48.794;8.326;2022-07-23T03:43:35;99868.41;;;21.59;86.11
5484;BME280;2764;48.794;8.326;2022-07-23T03:44:37;99870.22;;;21.59;85.06
5484;BME280;2764;48.794;8.326;2022-07-23T03:45:39;99870.06;;;21.60;85.48
5484;BME280;2764;48.794;8.326;2022-07-23T03:46:41;99872.88;;;21.59;84.88
5484;BME280;2764;48.794;8.326;2022-07-23T03:47:42;99873.84;;;21.58;85.48
5484;BME280;2764;48.794;8.326;2022-07-23T03:48:45;99868.91;;;21.53;85.59
5484;BME280;2764;48.794;8.326;2022-07-23T03:49:48;99872.56;;;21.52;85.73
5484;BME280;2764;48.794;8.326;2022-07-23T03:50:50;99868.47;;;21.48;86.08
5484;BME280;2764;48.794;8.326;2022-07-23T03:51:51;99873.22;;;21.45;86.19
5484;BME280;2764;48.794;8.326;2022-07-23T03:52:53;99875.16;;;21.43;87.56
5484;BME280;2764;48.794;8.326;2022-07-23T03:53:55;99869.53;;;21.36;87.10
5484;BME280;2764;48.794;8.326;2022-07-23T03:54:57;99874.25;;;21.33;87.52
5484;BME280;2764;48.794;8.326;2022-07-23T03:55:58;99874.81;;;21.27;87.00
5484;BME280;2764;48.794;8.326;2022-07-23T03:57:00;99873.34;;;21.23;86.38
5484;BME280;2764;48.794;8.326;2022-07-23T03:58:02;99863.50;;;21.14;86.39
5484;BME280;2764;48.794;8.326;2022-07-23T03:59:03;99863.38;;;21.15;86.35
5484;BME280;2764;48.794;8.326;2022-07-23T04:00:07;99867.72;;;21.16;87.67
5484;BME280;2764;48.794;8.326;2022-07-23T04:01:10;99874.97;;;21.14;87.09
5484;BME280;2764;48.794;8.326;2022-07-23T04:02:12;99871.63;;;21.12;86.85
5484;BME280;2764;48.794;8.326;2022-07-23T04:03:14;99876.38;;;21.09;86.57
5484;BME280;2764;48.794;8.326;2022-07-23T04:04:15;99875.50;;;21.08;86.67
5484;BME280;2764;48.794;8.326;2022-07-23T04:05:17;99874.66;;;21.08;87.08
5484;BME280;2764;48.794;8.326;2022-07-23T04:06:19;99855.09;;;20.97;87.31
5484;BME280;2764;48.794;8.326;2022-07-23T04:07:21;99887.00;;;21.09;87.11
5484;BME280;2764;48.794;8.326;2022-07-23T04:08:23;99876.63;;;21.06;87.05
5484;BME280;2764;48.794;8.326;2022-07-23T04:09:24;99874.66;;;21.08;88.73
5484;BME280;2764;48.794;8.326;2022-07-23T04:10:26;99881.69;;;21.09;88.43
5484;BME280;2764;48.794;8.326;2022-07-23T04:11:28;99880.00;;;21.08;89.09
5484;BME280;2764;48.794;8.326;2022-07-23T04:12:29;99879.84;;;21.09;88.93
5484;BME280;2764;48.794;8.326;2022-07-23T04:13:31;99879.75;;;21.11;88.50
5484;BME280;2764;48.794;8.326;2022-07-23T04:14:34;99877.94;;;21.11;88.37
5484;BME280;2764;48.794;8.326;2022-07-23T04:15:35;99877.66;;;21.14;88.86
5484;BME280;2764;48.794;8.326;2022-07-23T04:16:39;99879.91;;;21.19;89.64
5484;BME280;2764;48.794;8.326;2022-07-23T04:17:40;99877.16;;;21.20;88.45
5484;BME280;2764;48.794;8.326;2022-07-23T04:18:42;99869.16;;;21.20;88.09
5484;BME280;2764;48.794;8.326;2022-07-23T04:19:44;99872.66;;;21.21;87.42
5484;BME280;2764;48.794;8.326;2022-07-23T04:20:45;99878.66;;;21.23;87.73
5484;BME280;2764;48.794;8.326;2022-07-23T04:21:47;99877.72;;;21.24;87.19
5484;BME280;2764;48.794;8.326;2022-07-23T04:22:48;99855.56;;;21.02;86.57
5484;BME280;2764;48.794;8.326;2022-07-23T04:23:50;99876.75;;;21.25;86.09
5484;BME280;2764;48.794;8.326;2022-07-23T04:24:52;99873.34;;;21.23;86.07
5484;BME280;2764;48.794;8.326;2022-07-23T04:25:54;99873.09;;;21.26;86.61
5484;BME280;2764;48.794;8.326;2022-07-23T04:26:55;99875.66;;;21.27;86.62
5484;BME280;2764;48.794;8.326;2022-07-23T04:27:57;99879.03;;;21.29;86.43
5484;BME280;2764;48.794;8.326;2022-07-23T04:28:59;99879.84;;;21.30;86.84
5484;BME280;2764;48.794;8.326;2022-07-23T04:30:01;99882.38;;;21.31;86.85
5484;BME280;2764;48.794;8.326;2022-07-23T04:31:02;99880.56;;;21.32;86.63
5484;BME280;2764;48.794;8.326;2022-07-23T04:32:04;99892.81;;;21.44;86.77
5484;BME280;2764;48.794;8.326;2022-07-23T04:33:06;99901.25;;;21.49;87.09
5484;BME280;2764;48.794;8.326;2022-07-23T04:34:08;99895.38;;;21.55;86.15
5484;BME280;2764;48.794;8.326;2022-07-23T04:35:09;99898.25;;;21.63;84.85
5484;BME280;2764;48.794;8.326;2022-07-23T04:36:11;99889.41;;;21.62;84.89
5484;BME280;2764;48.794;8.326;2022-07-23T04:37:13;99912.56;;;21.72;84.96
5484;BME280;2764;48.794;8.326;2022-07-23T04:38:14;99904.47;;;21.73;85.32
5484;BME280;2764;48.794;8.326;2022-07-23T04:39:16;99910.59;;;21.74;84.95
5484;BME280;2764;48.794;8.326;2022-07-23T04:40:18;99914.97;;;21.75;86.09
5484;BME280;2764;48.794;8.326;2022-07-23T04:41:19;99917.88;;;21.72;85.70
5484;BME280;2764;48.794;8.326;2022-07-23T04:42:21;99937.78;;;21.67;86.09
5484;BME280;2764;48.794;8.326;2022-07-23T04:43:22;99917.28;;;21.58;85.42
5484;BME280;2764;48.794;8.326;2022-07-23T04:44:24;99917.28;;;21.58;84.87
5484;BME280;2764;48.794;8.326;2022-07-23T04:45:26;99916.41;;;21.58;84.95
5484;BME280;2764;48.794;8.326;2022-07-23T04:46:30;99908.84;;;21.53;84.78
5484;BME280;2764;48.794;8.326;2022-07-23T04:47:32;99909.53;;;21.55;85.06
5484;BME280;2764;48.794;8.326;2022-07-23T04:48:34;99908.84;;;21.53;84.44
5484;BME280;2764;48.794;8.326;2022-07-23T04:49:36;99911.50;;;21.53;84.87
5484;BME280;2764;48.794;8.326;2022-07-23T04:50:38;99913.06;;;21.56;85.21
5484;BME280;2764;48.794;8.326;2022-07-23T04:51:40;99913.75;;;21.58;85.83
5484;BME280;2764;48.794;8.326;2022-07-23T04:52:41;99913.06;;;21.56;85.51
5484;BME280;2764;48.794;8.326;2022-07-23T04:53:43;99914.59;;;21.58;84.52
5484;BME280;2764;48.794;8.326;2022-07-23T04:54:46;99911.94;;;21.58;84.51
5484;BME280;2764;48.794;8.326;2022-07-23T04:55:47;99917.13;;;21.60;85.31
5484;BME280;2764;48.794;8.326;2022-07-23T04:56:49;99908.31;;;21.59;85.22
5484;BME280;2764;48.794;8.326;2022-07-23T04:57:51;99909.16;;;21.60;85.40
5484;BME280;2764;48.794;8.326;2022-07-23T04:58:52;99909.03;;;21.61;85.69
5484;BME280;2764;48.794;8.326;2022-07-23T04:59:54;99913.97;;;21.66;85.35
5484;BME280;2764;48.794;8.326;2022-07-23T05:00:55;99913.66;;;21.69;85.20
5484;BME280;2764;48.794;8.326;2022-07-23T05:01:59;99910.75;;;21.72;84.91
5484;BME280;2764;48.794;8.326;2022-07-23T05:03:01;99908.78;;;21.74;85.93
5484;BME280;2764;48.794;8.326;2022-07-23T05:04:02;99915.53;;;21.78;85.98
5484;BME280;2764;48.794;8.326;2022-07-23T05:05:05;99914.44;;;21.81;85.43
5484;BME280;2764;48.794;8.326;2022-07-23T05:06:06;99921.09;;;21.86;84.83
5484;BME280;2764;48.794;8.326;2022-07-23T05:07:08;99924.19;;;21.91;85.40
5484;BME280;2764;48.794;8.326;2022-07-23T05:08:10;99928.25;;;21.95;86.90
5484;BME280;2764;48.794;8.326;2022-07-23T05:09:11;99930.38;;;22.01;86.63
5484;BME280;2764;48.794;8.326;2022-07-23T05:10:13;99923.53;;;22.08;83.58
5484;BME280;2764;48.794;8.326;2022-07-23T05:11:15;99922.03;;;22.15;82.47
5484;BME280;2764;48.794;8.326;2022-07-23T05:12:16;99926.53;;;22.24;80.78
5484;BME280;2764;48.794;8.326;2022-07-23T05:13:18;99919.69;;;22.31;80.62
5484;BME280;2764;48.794;8.326;2022-07-23T05:14:20;99913.81;;;22.38;80.62
5484;BME280;2764;48.794;8.326;2022-07-23T05:15:26;99925.47;;;22.46;81.75
5484;BME280;2764;48.794;8.326;2022-07-23T05:16:27;99918.03;;;22.50;80.74
5484;BME280;2764;48.794;8.326;2022-07-23T05:17:29;99914.13;;;22.54;81.55
5484;BME280;2764;48.794;8.326;2022-07-23T05:18:31;99916.50;;;22.57;79.66
5484;BME280;2764;48.794;8.326;2022-07-23T05:19:33;99910.75;;;22.52;80.92
5484;BME280;2764;48.794;8.326;2022-07-23T05:20:34;99904.59;;;22.51;81.81
5484;BME280;2764;48.794;8.326;2022-07-23T05:21:36;99911.03;;;22.49;80.06
5484;BME280;2764;48.794;8.326;2022-07-23T05:22:37;99909.34;;;22.48;80.83
5484;BME280;2764;48.794;8.326;2022-07-23T05:23:39;99906.56;;;22.49;80.14
5484;BME280;2764;48.794;8.326;2022-07-23T05:24:41;99899.38;;;22.50;80.31
5484;BME280;2764;48.794;8.326;2022-07-23T05:25:44;99908.50;;;22.57;80.72
5484;BME280;2764;48.794;8.326;2022-07-23T05:26:46;99892.97;;;22.62;80.67
5484;BME280;2764;48.794;8.326;2022-07-23T05:27:47;99899.44;;;22.69;78.40
5484;BME280;2764;48.794;8.326;2022-07-23T05:28:50;99899.16;;;22.72;78.96
5484;BME280;2764;48.794;8.326;2022-07-23T05:29:51;99902.38;;;22.75;78.63
5484;BME280;2764;48.794;8.326;2022-07-23T05:30:54;99892.00;;;22.72;79.78
5484;BME280;2764;48.794;8.326;2022-07-23T05:31:55;99893.84;;;22.72;80.32
5484;BME280;2764;48.794;8.326;2022-07-23T05:32:57;99892.13;;;22.71;78.63
5484;BME280;2764;48.794;8.326;2022-07-23T05:33:59;99895.50;;;22.73;78.01
5484;BME280;2764;48.794;8.326;2022-07-23T05:35:00;99892.56;;;22.76;77.39
5484;BME280;2764;48.794;8.326;2022-07-23T05:36:04;99868.00;;;22.72;76.53
5484;BME280;2764;48.794;8.326;2022-07-23T05:37:06;99885.41;;;22.86;76.86
5484;BME280;2764;48.794;8.326;2022-07-23T05:38:07;99883.44;;;22.88;77.25